sensor_id;sensor_type;location;lat;lon;timestamp;temperature;humidity
38788;DHT22;24536;45.488;12.238;2023-01-01T00:04:12;12.30;94.70
38788;DHT22;24536;45.488;12.238;2023-01-01T00:06:40;12.30;94.90
38788;DHT22;24536;45.488;12.238;2023-01-01T00:09:17;12.30;94.70
38788;DHT22;24536;45.488;12.238;2023-01-01T00:12:05;12.30;94.70
38788;DHT22;24536;45.488;12.238;2023-01-01T00:14:39;12.30;94.80
38788;DHT22;24536;45.488;12.238;2023-01-01T00:18:11;12.30;94.80
38788;DHT22;24536;45.488;12.238;2023-01-01T00:24:23;12.30;94.70
38788;DHT22;24536;45.488;12.238;2023-01-01T00:27:17;12.30;94.60
38788;DHT22;24536;45.488;12.238;2023-01-01T00:30:00;12.30;94.70
38788;DHT22;24536;45.488;12.238;2023-01-01T00:32:27;12.30;94.70
38788;DHT22;24536;45.488;12.238;2023-01-01T00:35:45;12.30;94.70
38788;DHT22;24536;45.488;12.238;2023-01-01T00:38:21;12.30;94.70
38788;DHT22;24536;45.488;12.238;2023-01-01T00:40:48;12.30;94.70
38788;DHT22;24536;45.488;12.238;2023-01-01T00:43:18;12.30;94.70
38788;DHT22;24536;45.488;12.238;2023-01-01T00:45:44;12.30;94.80
38788;DHT22;24536;45.488;12.238;2023-01-01T00:48:17;12.30;94.80
38788;DHT22;24536;45.488;12.238;2023-01-01T00:50:53;12.30;95.00
38788;DHT22;24536;45.488;12.238;2023-01-01T00:53:34;12.30;94.80
38788;DHT22;24536;45.488;12.238;2023-01-01T00:56:11;12.30;94.80
38788;DHT22;24536;45.488;12.238;2023-01-01T00:58:46;12.20;94.80
38788;DHT22;24536;45.488;12.238;2023-01-01T01:01:34;12.30;94.90
38788;DHT22;24536;45.488;12.238;2023-01-01T01:04:06;12.30;94.80
38788;DHT22;24536;45.488;12.238;2023-01-01T01:06:42;12.30;94.70
38788;DHT22;24536;45.488;12.238;2023-01-01T01:09:59;12.20;94.70
38788;DHT22;24536;45.488;12.238;2023-01-01T01:16:34;12.20;94.80
38788;DHT22;24536;45.488;12.238;2023-01-01T01:22:51;12.20;94.80
38788;DHT22;24536;45.488;12.238;2023-01-01T01:25:39;12.20;94.80
38788;DHT22;24536;45.488;12.238;2023-01-01T01:28:05;12.20;94.80
38788;DHT22;24536;45.488;12.238;2023-01-01T01:30:36;12.20;94.90
38788;DHT22;24536;45.488;12.238;2023-01-01T01:33:05;12.20;94.80
38788;DHT22;24536;45.488;12.238;2023-01-01T01:35:37;12.20;94.90
38788;DHT22;24536;45.488;12.238;2023-01-01T01:45:32;12.20;94.90
38788;DHT22;24536;45.488;12.238;2023-01-01T01:52:01;12.20;94.80
38788;DHT22;24536;45.488;12.238;2023-01-01T01:54:50;12.20;94.80
38788;DHT22;24536;45.488;12.238;2023-01-01T01:57:31;12.20;94.90
38788;DHT22;24536;45.488;12.238;2023-01-01T02:01:15;12.20;94.90
38788;DHT22;24536;45.488;12.238;2023-01-01T02:04:12;12.10;94.90
38788;DHT22;24536;45.488;12.238;2023-01-01T02:06:59;12.10;94.90
38788;DHT22;24536;45.488;12.238;2023-01-01T02:12:58;12.10;95.00
38788;DHT22;24536;45.488;12.238;2023-01-01T02:22:13;12.10;95.00
38788;DHT22;24536;45.488;12.238;2023-01-01T02:31:11;12.10;95.00
38788;DHT22;24536;45.488;12.238;2023-01-01T02:33:51;12.10;95.00
38788;DHT22;24536;45.488;12.238;2023-01-01T02:37:00;12.10;95.00
38788;DHT22;24536;45.488;12.238;2023-01-01T02:46:53;12.10;95.10
38788;DHT22;24536;45.488;12.238;2023-01-01T02:49:24;12.10;95.10
38788;DHT22;24536;45.488;12.238;2023-01-01T02:52:07;12.10;95.10
38788;DHT22;24536;45.488;12.238;2023-01-01T03:05:50;12.10;95.00
38788;DHT22;24536;45.488;12.238;2023-01-01T03:26:50;12.10;95.00
38788;DHT22;24536;45.488;12.238;2023-01-01T03:30:10;12.10;95.00
38788;DHT22;24536;45.488;12.238;2023-01-01T03:32:43;12.10;95.00
38788;DHT22;24536;45.488;12.238;2023-01-01T03:35:29;12.20;95.10
38788;DHT22;24536;45.488;12.238;2023-01-01T03:37:58;12.20;95.00
38788;DHT22;24536;45.488;12.238;2023-01-01T03:40:25;12.20;95.00
38788;DHT22;24536;45.488;12.238;2023-01-01T03:42:59;12.20;95.00
38788;DHT22;24536;45.488;12.238;2023-01-01T03:45:38;12.20;95.00
38788;DHT22;24536;45.488;12.238;2023-01-01T03:48:05;12.20;95.00
38788;DHT22;24536;45.488;12.238;2023-01-01T03:51:01;12.20;95.00
38788;DHT22;24536;45.488;12.238;2023-01-01T03:53:41;12.20;94.90
38788;DHT22;24536;45.488;12.238;2023-01-01T03:56:15;12.20;94.90
38788;DHT22;24536;45.488;12.238;2023-01-01T03:58:48;12.20;94.80
38788;DHT22;24536;45.488;12.238;2023-01-01T04:01:25;12.20;94.80
38788;DHT22;24536;45.488;12.238;2023-01-01T04:03:51;12.20;94.80
38788;DHT22;24536;45.488;12.238;2023-01-01T04:06:17;12.10;94.90
38788;DHT22;24536;45.488;12.238;2023-01-01T04:08:45;12.10;94.90
38788;DHT22;24536;45.488;12.238;2023-01-01T04:11:18;12.10;94.90
38788;DHT22;24536;45.488;12.238;2023-01-01T04:14:04;12.10;94.90
38788;DHT22;24536;45.488;12.238;2023-01-01T04:16:29;12.10;94.90
38788;DHT22;24536;45.488;12.238;2023-01-01T04:18:55;12.00;95.00
38788;DHT22;24536;45.488;12.238;2023-01-01T04:21:21;12.00;95.00
38788;DHT22;24536;45.488;12.238;2023-01-01T04:23:46;12.10;95.00
38788;DHT22;24536;45.488;12.238;2023-01-01T04:26:13;12.00;95.00
38788;DHT22;24536;45.488;12.238;2023-01-01T04:28:40;12.00;95.20
38788;DHT22;24536;45.488;12.238;2023-01-01T04:31:07;12.00;95.00
38788;DHT22;24536;45.488;12.238;2023-01-01T04:33:32;12.00;95.00
38788;DHT22;24536;45.488;12.238;2023-01-01T04:36:16;12.00;95.10
38788;DHT22;24536;45.488;12.238;2023-01-01T04:38:42;12.10;95.10
38788;DHT22;24536;45.488;12.238;2023-01-01T04:41:08;12.10;95.10
38788;DHT22;24536;45.488;12.238;2023-01-01T04:43:34;12.10;95.00
38788;DHT22;24536;45.488;12.238;2023-01-01T04:46:01;12.10;95.00
38788;DHT22;24536;45.488;12.238;2023-01-01T04:48:29;12.10;95.00
38788;DHT22;24536;45.488;12.238;2023-01-01T04:51:03;12.10;95.00
38788;DHT22;24536;45.488;12.238;2023-01-01T04:53:32;12.10;95.00
38788;DHT22;24536;45.488;12.238;2023-01-01T04:56:05;12.10;95.30
38788;DHT22;24536;45.488;12.238;2023-01-01T04:58:32;12.10;95.00
38788;DHT22;24536;45.488;12.238;2023-01-01T05:00:58;12.10;95.00
38788;DHT22;24536;45.488;12.238;2023-01-01T05:03:24;12.10;95.00
38788;DHT22;24536;45.488;12.238;2023-01-01T05:06:08;12.10;95.10
38788;DHT22;24536;45.488;12.238;2023-01-01T05:08:36;12.10;95.10
38788;DHT22;24536;45.488;12.238;2023-01-01T05:11:10;12.10;95.10
38788;DHT22;24536;45.488;12.238;2023-01-01T05:13:38;12.10;95.10
38788;DHT22;24536;45.488;12.238;2023-01-01T05:16:05;12.10;95.10
38788;DHT22;24536;45.488;12.238;2023-01-01T05:18:31;12.10;95.10
38788;DHT22;24536;45.488;12.238;2023-01-01T05:21:00;12.10;95.10
38788;DHT22;24536;45.488;12.238;2023-01-01T05:23:27;12.10;95.10
38788;DHT22;24536;45.488;12.238;2023-01-01T05:25:53;12.10;95.10
38788;DHT22;24536;45.488;12.238;2023-01-01T05:28:19;12.10;95.00
38788;DHT22;24536;45.488;12.238;2023-01-01T05:30:45;12.10;95.00
38788;DHT22;24536;45.488;12.238;2023-01-01T05:33:11;12.10;95.00
38788;DHT22;24536;45.488;12.238;2023-01-01T05:35:38;12.10;95.00
38788;DHT22;24536;45.488;12.238;2023-01-01T05:38:03;12.10;95.00
38788;DHT22;24536;45.488;12.238;2023-01-01T05:40:29;12.10;95.10
38788;DHT22;24536;45.488;12.238;2023-01-01T05:42:55;12.10;95.10
38788;DHT22;24536;45.488;12.238;2023-01-01T05:45:21;12.10;95.30
38788;DHT22;24536;45.488;12.238;2023-01-01T05:47:47;12.10;95.10
38788;DHT22;24536;45.488;12.238;2023-01-01T05:50:13;12.10;95.10
38788;DHT22;24536;45.488;12.238;2023-01-01T05:52:38;12.10;95.10
38788;DHT22;24536;45.488;12.238;2023-01-01T05:55:04;12.10;95.10
38788;DHT22;24536;45.488;12.238;2023-01-01T05:57:30;12.00;95.10
38788;DHT22;24536;45.488;12.238;2023-01-01T05:59:56;12.10;95.30
38788;DHT22;24536;45.488;12.238;2023-01-01T06:02:22;12.00;95.10
38788;DHT22;24536;45.488;12.238;2023-01-01T06:04:47;12.00;95.10
38788;DHT22;24536;45.488;12.238;2023-01-01T06:07:13;12.00;95.10
38788;DHT22;24536;45.488;12.238;2023-01-01T06:09:39;12.00;95.10
38788;DHT22;24536;45.488;12.238;2023-01-01T06:12:05;12.00;95.00
38788;DHT22;24536;45.488;12.238;2023-01-01T06:14:30;12.00;95.00
38788;DHT22;24536;45.488;12.238;2023-01-01T06:16:56;12.00;95.00
38788;DHT22;24536;45.488;12.238;2023-01-01T06:19:22;12.00;95.00
38788;DHT22;24536;45.488;12.238;2023-01-01T06:21:47;12.00;95.00
38788;DHT22;24536;45.488;12.238;2023-01-01T06:24:14;12.00;95.10
38788;DHT22;24536;45.488;12.238;2023-01-01T06:26:40;12.00;95.10
38788;DHT22;24536;45.488;12.238;2023-01-01T06:29:05;12.00;95.10
38788;DHT22;24536;45.488;12.238;2023-01-01T06:31:31;12.00;95.00
38788;DHT22;24536;45.488;12.238;2023-01-01T06:33:57;12.00;95.00
38788;DHT22;24536;45.488;12.238;2023-01-01T06:36:24;12.00;95.00
38788;DHT22;24536;45.488;12.238;2023-01-01T06:38:52;12.00;95.00
38788;DHT22;24536;45.488;12.238;2023-01-01T06:41:21;12.00;95.00
38788;DHT22;24536;45.488;12.238;2023-01-01T06:43:48;12.00;95.00
38788;DHT22;24536;45.488;12.238;2023-01-01T06:48:46;12.00;95.00
38788;DHT22;24536;45.488;12.238;2023-01-01T06:51:17;12.00;95.00
38788;DHT22;24536;45.488;12.238;2023-01-01T06:53:44;12.00;95.00
38788;DHT22;24536;45.488;12.238;2023-01-01T06:56:10;12.00;95.00
38788;DHT22;24536;45.488;12.238;2023-01-01T06:58:36;12.00;94.90
38788;DHT22;24536;45.488;12.238;2023-01-01T07:01:03;12.00;95.10
38788;DHT22;24536;45.488;12.238;2023-01-01T07:03:29;12.10;94.90
38788;DHT22;24536;45.488;12.238;2023-01-01T07:05:55;12.10;94.80
38788;DHT22;24536;45.488;12.238;2023-01-01T07:08:21;12.10;94.80
38788;DHT22;24536;45.488;12.238;2023-01-01T07:10:46;12.10;94.80
38788;DHT22;24536;45.488;12.238;2023-01-01T07:13:12;12.10;94.70
38788;DHT22;24536;45.488;12.238;2023-01-01T07:15:37;12.10;94.70
38788;DHT22;24536;45.488;12.238;2023-01-01T07:18:03;12.10;94.60
38788;DHT22;24536;45.488;12.238;2023-01-01T07:20:29;12.10;94.60
38788;DHT22;24536;45.488;12.238;2023-01-01T07:22:55;12.20;94.60
38788;DHT22;24536;45.488;12.238;2023-01-01T07:25:20;12.20;94.30
38788;DHT22;24536;45.488;12.238;2023-01-01T07:27:46;12.20;94.50
38788;DHT22;24536;45.488;12.238;2023-01-01T07:30:12;12.20;94.50
38788;DHT22;24536;45.488;12.238;2023-01-01T07:32:37;12.20;94.50
38788;DHT22;24536;45.488;12.238;2023-01-01T07:35:03;12.20;94.50
38788;DHT22;24536;45.488;12.238;2023-01-01T07:37:29;12.20;94.50
38788;DHT22;24536;45.488;12.238;2023-01-01T07:39:55;12.30;94.50
38788;DHT22;24536;45.488;12.238;2023-01-01T07:42:20;12.30;94.40
38788;DHT22;24536;45.488;12.238;2023-01-01T07:44:46;12.30;94.40
38788;DHT22;24536;45.488;12.238;2023-01-01T07:47:21;12.30;94.30
38788;DHT22;24536;45.488;12.238;2023-01-01T07:49:47;12.30;94.40
38788;DHT22;24536;45.488;12.238;2023-01-01T07:52:13;12.30;94.30
38788;DHT22;24536;45.488;12.238;2023-01-01T07:54:39;12.30;94.30
38788;DHT22;24536;45.488;12.238;2023-01-01T07:57:04;12.30;94.30
38788;DHT22;24536;45.488;12.238;2023-01-01T07:59:30;12.30;94.30
38788;DHT22;24536;45.488;12.238;2023-01-01T08:01:56;12.30;94.30
38788;DHT22;24536;45.488;12.238;2023-01-01T08:04:22;12.30;94.30
38788;DHT22;24536;45.488;12.238;2023-01-01T08:06:47;12.40;94.30
38788;DHT22;24536;45.488;12.238;2023-01-01T08:09:13;12.30;94.20
38788;DHT22;24536;45.488;12.238;2023-01-01T08:11:38;12.40;94.20
38788;DHT22;24536;45.488;12.238;2023-01-01T08:14:04;12.40;94.10
38788;DHT22;24536;45.488;12.238;2023-01-01T08:16:30;12.40;94.20
38788;DHT22;24536;45.488;12.238;2023-01-01T08:18:56;12.40;94.20
38788;DHT22;24536;45.488;12.238;2023-01-01T08:21:21;12.40;94.10
38788;DHT22;24536;45.488;12.238;2023-01-01T08:23:47;12.50;94.30
38788;DHT22;24536;45.488;12.238;2023-01-01T08:26:14;12.50;94.20
38788;DHT22;24536;45.488;12.238;2023-01-01T08:28:41;12.50;94.20
38788;DHT22;24536;45.488;12.238;2023-01-01T08:31:06;12.60;94.20
38788;DHT22;24536;45.488;12.238;2023-01-01T08:33:32;12.60;94.20
38788;DHT22;24536;45.488;12.238;2023-01-01T08:35:58;12.70;94.20
38788;DHT22;24536;45.488;12.238;2023-01-01T08:38:25;12.80;94.20
38788;DHT22;24536;45.488;12.238;2023-01-01T08:40:51;12.90;94.20
38788;DHT22;24536;45.488;12.238;2023-01-01T08:43:17;13.10;94.10
38788;DHT22;24536;45.488;12.238;2023-01-01T08:45:42;13.10;93.70
38788;DHT22;24536;45.488;12.238;2023-01-01T08:48:08;13.10;93.60
38788;DHT22;24536;45.488;12.238;2023-01-01T08:50:34;13.20;93.60
38788;DHT22;24536;45.488;12.238;2023-01-01T08:52:59;13.20;93.50
38788;DHT22;24536;45.488;12.238;2023-01-01T08:55:25;13.20;93.40
38788;DHT22;24536;45.488;12.238;2023-01-01T08:57:51;13.20;93.40
38788;DHT22;24536;45.488;12.238;2023-01-01T09:00:17;13.20;93.40
38788;DHT22;24536;45.488;12.238;2023-01-01T09:02:43;13.20;93.40
38788;DHT22;24536;45.488;12.238;2023-01-01T09:05:09;13.30;93.30
38788;DHT22;24536;45.488;12.238;2023-01-01T09:07:34;13.40;93.30
38788;DHT22;24536;45.488;12.238;2023-01-01T09:10:01;13.40;93.20
38788;DHT22;24536;45.488;12.238;2023-01-01T09:12:27;13.40;93.10
38788;DHT22;24536;45.488;12.238;2023-01-01T09:14:53;13.40;93.00
38788;DHT22;24536;45.488;12.238;2023-01-01T09:17:18;13.50;93.00
38788;DHT22;24536;45.488;12.238;2023-01-01T09:19:44;13.60;93.00
38788;DHT22;24536;45.488;12.238;2023-01-01T09:22:11;13.70;93.00
38788;DHT22;24536;45.488;12.238;2023-01-01T09:24:37;13.70;93.00
38788;DHT22;24536;45.488;12.238;2023-01-01T09:27:03;13.70;92.80
38788;DHT22;24536;45.488;12.238;2023-01-01T09:29:29;13.80;92.80
38788;DHT22;24536;45.488;12.238;2023-01-01T09:31:55;13.80;92.60
38788;DHT22;24536;45.488;12.238;2023-01-01T09:34:21;13.80;92.50
38788;DHT22;24536;45.488;12.238;2023-01-01T09:36:46;13.80;92.50
38788;DHT22;24536;45.488;12.238;2023-01-01T09:39:14;13.90;92.60
38788;DHT22;24536;45.488;12.238;2023-01-01T09:41:56;13.90;92.50
38788;DHT22;24536;45.488;12.238;2023-01-01T09:44:43;13.90;92.40
38788;DHT22;24536;45.488;12.238;2023-01-01T09:49:45;13.90;92.40
38788;DHT22;24536;45.488;12.238;2023-01-01T09:52:14;13.90;92.40
38788;DHT22;24536;45.488;12.238;2023-01-01T09:57:13;14.00;92.40
38788;DHT22;24536;45.488;12.238;2023-01-01T09:59:39;14.00;92.30
38788;DHT22;24536;45.488;12.238;2023-01-01T10:12:58;14.10;92.10
38788;DHT22;24536;45.488;12.238;2023-01-01T10:15:32;14.00;92.00
38788;DHT22;24536;45.488;12.238;2023-01-01T10:18:02;14.00;92.00
38788;DHT22;24536;45.488;12.238;2023-01-01T10:20:37;14.00;92.10
38788;DHT22;24536;45.488;12.238;2023-01-01T10:23:12;13.90;92.20
38788;DHT22;24536;45.488;12.238;2023-01-01T10:25:41;13.90;92.40
38788;DHT22;24536;45.488;12.238;2023-01-01T10:28:21;13.90;92.50
38788;DHT22;24536;45.488;12.238;2023-01-01T10:31:09;14.00;92.50
38788;DHT22;24536;45.488;12.238;2023-01-01T10:33:38;14.00;92.40
38788;DHT22;24536;45.488;12.238;2023-01-01T10:36:04;14.10;92.50
38788;DHT22;24536;45.488;12.238;2023-01-01T10:38:30;14.10;92.30
38788;DHT22;24536;45.488;12.238;2023-01-01T10:41:02;14.10;92.30
38788;DHT22;24536;45.488;12.238;2023-01-01T10:43:30;14.10;92.20
38788;DHT22;24536;45.488;12.238;2023-01-01T10:45:56;14.20;92.10
38788;DHT22;24536;45.488;12.238;2023-01-01T10:48:25;14.20;92.10
38788;DHT22;24536;45.488;12.238;2023-01-01T10:51:00;14.20;92.00
38788;DHT22;24536;45.488;12.238;2023-01-01T10:53:42;14.30;92.00
38788;DHT22;24536;45.488;12.238;2023-01-01T10:56:14;14.20;92.00
38788;DHT22;24536;45.488;12.238;2023-01-01T11:01:23;14.20;92.00
38788;DHT22;24536;45.488;12.238;2023-01-01T11:06:43;14.40;92.00
38788;DHT22;24536;45.488;12.238;2023-01-01T11:09:25;14.40;92.00
38788;DHT22;24536;45.488;12.238;2023-01-01T11:12:05;14.40;91.90
38788;DHT22;24536;45.488;12.238;2023-01-01T11:14:39;14.50;91.90
38788;DHT22;24536;45.488;12.238;2023-01-01T11:17:07;14.60;91.80
38788;DHT22;24536;45.488;12.238;2023-01-01T11:19:35;14.60;91.60
38788;DHT22;24536;45.488;12.238;2023-01-01T11:22:02;14.60;91.60
38788;DHT22;24536;45.488;12.238;2023-01-01T11:24:30;14.60;91.50
38788;DHT22;24536;45.488;12.238;2023-01-01T11:27:20;14.60;91.40
38788;DHT22;24536;45.488;12.238;2023-01-01T11:29:46;14.60;91.40
38788;DHT22;24536;45.488;12.238;2023-01-01T11:32:22;14.60;91.40
38788;DHT22;24536;45.488;12.238;2023-01-01T11:34:57;14.70;91.40
38788;DHT22;24536;45.488;12.238;2023-01-01T11:37:31;14.60;91.40
38788;DHT22;24536;45.488;12.238;2023-01-01T11:39:59;14.70;91.40
38788;DHT22;24536;45.488;12.238;2023-01-01T11:42:31;14.70;91.50
38788;DHT22;24536;45.488;12.238;2023-01-01T11:45:24;14.70;91.40
38788;DHT22;24536;45.488;12.238;2023-01-01T11:47:56;14.70;91.50
38788;DHT22;24536;45.488;12.238;2023-01-01T11:50:33;14.70;91.50
38788;DHT22;24536;45.488;12.238;2023-01-01T12:03:53;14.80;91.40
38788;DHT22;24536;45.488;12.238;2023-01-01T12:06:46;14.80;91.40
38788;DHT22;24536;45.488;12.238;2023-01-01T12:09:26;14.90;91.40
38788;DHT22;24536;45.488;12.238;2023-01-01T12:12:14;15.00;91.40
38788;DHT22;24536;45.488;12.238;2023-01-01T12:14:56;15.00;91.30
38788;DHT22;24536;45.488;12.238;2023-01-01T12:17:42;15.00;91.40
38788;DHT22;24536;45.488;12.238;2023-01-01T12:22:55;15.10;91.50
38788;DHT22;24536;45.488;12.238;2023-01-01T12:25:23;15.10;91.40
38788;DHT22;24536;45.488;12.238;2023-01-01T12:34:05;15.50;91.20
38788;DHT22;24536;45.488;12.238;2023-01-01T12:47:54;16.10;90.60
38788;DHT22;24536;45.488;12.238;2023-01-01T12:50:39;16.30;90.50
38788;DHT22;24536;45.488;12.238;2023-01-01T12:58:25;16.00;89.70
38788;DHT22;24536;45.488;12.238;2023-01-01T13:01:16;16.00;89.60
38788;DHT22;24536;45.488;12.238;2023-01-01T13:09:13;15.70;90.00
38788;DHT22;24536;45.488;12.238;2023-01-01T13:11:39;15.60;90.10
38788;DHT22;24536;45.488;12.238;2023-01-01T13:14:07;15.50;90.20
38788;DHT22;24536;45.488;12.238;2023-01-01T13:16:40;15.40;90.30
38788;DHT22;24536;45.488;12.238;2023-01-01T13:19:24;15.30;90.40
38788;DHT22;24536;45.488;12.238;2023-01-01T13:21:51;15.30;90.50
38788;DHT22;24536;45.488;12.238;2023-01-01T13:24:20;15.30;90.60
38788;DHT22;24536;45.488;12.238;2023-01-01T13:26:46;15.20;90.60
38788;DHT22;24536;45.488;12.238;2023-01-01T13:39:58;15.10;90.80
38788;DHT22;24536;45.488;12.238;2023-01-01T13:45:07;15.10;90.90
38788;DHT22;24536;45.488;12.238;2023-01-01T13:50:22;15.00;91.00
38788;DHT22;24536;45.488;12.238;2023-01-01T13:53:16;15.00;91.00
38788;DHT22;24536;45.488;12.238;2023-01-01T13:59:28;14.90;91.10
38788;DHT22;24536;45.488;12.238;2023-01-01T14:03:59;14.90;91.20
38788;DHT22;24536;45.488;12.238;2023-01-01T14:09:15;14.90;91.30
38788;DHT22;24536;45.488;12.238;2023-01-01T14:11:43;14.80;91.30
38788;DHT22;24536;45.488;12.238;2023-01-01T14:14:27;14.90;91.40
38788;DHT22;24536;45.488;12.238;2023-01-01T14:16:58;14.80;91.40
38788;DHT22;24536;45.488;12.238;2023-01-01T14:19:25;14.80;91.40
38788;DHT22;24536;45.488;12.238;2023-01-01T14:21:52;14.80;91.40
38788;DHT22;24536;45.488;12.238;2023-01-01T14:24:20;14.80;91.40
38788;DHT22;24536;45.488;12.238;2023-01-01T14:26:46;14.80;91.40
38788;DHT22;24536;45.488;12.238;2023-01-01T14:29:28;14.70;91.50
38788;DHT22;24536;45.488;12.238;2023-01-01T14:31:57;14.70;91.50
38788;DHT22;24536;45.488;12.238;2023-01-01T14:34:31;14.70;91.50
38788;DHT22;24536;45.488;12.238;2023-01-01T14:36:59;14.70;91.50
38788;DHT22;24536;45.488;12.238;2023-01-01T14:39:30;14.70;91.40
38788;DHT22;24536;45.488;12.238;2023-01-01T14:42:08;14.60;91.40
38788;DHT22;24536;45.488;12.238;2023-01-01T14:44:38;14.60;91.40
38788;DHT22;24536;45.488;12.238;2023-01-01T14:49:49;14.50;91.50
38788;DHT22;24536;45.488;12.238;2023-01-01T14:52:22;14.50;91.60
38788;DHT22;24536;45.488;12.238;2023-01-01T14:54:49;14.50;91.60
38788;DHT22;24536;45.488;12.238;2023-01-01T14:57:22;14.50;91.70
38788;DHT22;24536;45.488;12.238;2023-01-01T14:59:50;14.40;91.60
38788;DHT22;24536;45.488;12.238;2023-01-01T15:02:28;14.40;91.60
38788;DHT22;24536;45.488;12.238;2023-01-01T15:04:56;14.40;91.70
38788;DHT22;24536;45.488;12.238;2023-01-01T15:07:30;14.40;91.70
38788;DHT22;24536;45.488;12.238;2023-01-01T15:09:57;14.40;91.70
38788;DHT22;24536;45.488;12.238;2023-01-01T15:12:28;14.30;91.70
38788;DHT22;24536;45.488;12.238;2023-01-01T15:14:55;14.30;91.80
38788;DHT22;24536;45.488;12.238;2023-01-01T15:17:26;14.30;91.90
38788;DHT22;24536;45.488;12.238;2023-01-01T15:20:24;14.30;92.00
38788;DHT22;24536;45.488;12.238;2023-01-01T15:22:51;14.20;92.00
38788;DHT22;24536;45.488;12.238;2023-01-01T15:25:17;14.20;92.10
38788;DHT22;24536;45.488;12.238;2023-01-01T15:27:48;14.20;92.20
38788;DHT22;24536;45.488;12.238;2023-01-01T15:30:40;14.10;92.20
38788;DHT22;24536;45.488;12.238;2023-01-01T15:33:08;14.10;92.30
38788;DHT22;24536;45.488;12.238;2023-01-01T15:35:34;14.10;92.30
38788;DHT22;24536;45.488;12.238;2023-01-01T15:38:14;14.10;92.30
38788;DHT22;24536;45.488;12.238;2023-01-01T15:40:42;14.10;92.30
38788;DHT22;24536;45.488;12.238;2023-01-01T15:45:59;14.00;92.30
38788;DHT22;24536;45.488;12.238;2023-01-01T15:48:36;14.00;92.50
38788;DHT22;24536;45.488;12.238;2023-01-01T15:51:22;14.00;92.30
38788;DHT22;24536;45.488;12.238;2023-01-01T15:56:15;13.90;92.20
38788;DHT22;24536;45.488;12.238;2023-01-01T15:58:50;14.00;92.50
38788;DHT22;24536;45.488;12.238;2023-01-01T16:01:21;13.90;92.40
38788;DHT22;24536;45.488;12.238;2023-01-01T16:03:48;13.90;92.50
38788;DHT22;24536;45.488;12.238;2023-01-01T16:06:17;13.90;92.80
38788;DHT22;24536;45.488;12.238;2023-01-01T16:08:44;13.90;92.60
38788;DHT22;24536;45.488;12.238;2023-01-01T16:11:10;13.80;92.60
38788;DHT22;24536;45.488;12.238;2023-01-01T16:13:35;13.80;92.60
38788;DHT22;24536;45.488;12.238;2023-01-01T16:16:02;13.80;92.70
38788;DHT22;24536;45.488;12.238;2023-01-01T16:18:33;13.80;92.70
38788;DHT22;24536;45.488;12.238;2023-01-01T16:21:00;13.80;92.80
38788;DHT22;24536;45.488;12.238;2023-01-01T16:23:27;13.80;92.80
38788;DHT22;24536;45.488;12.238;2023-01-01T16:25:52;13.80;92.90
38788;DHT22;24536;45.488;12.238;2023-01-01T16:28:18;13.80;92.90
38788;DHT22;24536;45.488;12.238;2023-01-01T16:30:44;13.70;92.90
38788;DHT22;24536;45.488;12.238;2023-01-01T16:33:19;13.70;92.90
38788;DHT22;24536;45.488;12.238;2023-01-01T16:35:47;13.70;92.90
38788;DHT22;24536;45.488;12.238;2023-01-01T16:38:12;13.70;93.00
38788;DHT22;24536;45.488;12.238;2023-01-01T16:40:38;13.70;93.00
38788;DHT22;24536;45.488;12.238;2023-01-01T16:43:04;13.70;93.00
38788;DHT22;24536;45.488;12.238;2023-01-01T16:45:33;13.70;93.00
38788;DHT22;24536;45.488;12.238;2023-01-01T16:48:00;13.70;93.00
38788;DHT22;24536;45.488;12.238;2023-01-01T16:50:26;13.70;93.00
38788;DHT22;24536;45.488;12.238;2023-01-01T16:52:51;13.70;93.10
38788;DHT22;24536;45.488;12.238;2023-01-01T16:55:17;13.60;93.00
38788;DHT22;24536;45.488;12.238;2023-01-01T16:57:43;13.60;93.00
38788;DHT22;24536;45.488;12.238;2023-01-01T17:00:09;13.60;93.10
38788;DHT22;24536;45.488;12.238;2023-01-01T17:02:35;13.60;93.10
38788;DHT22;24536;45.488;12.238;2023-01-01T17:05:01;13.60;93.00
38788;DHT22;24536;45.488;12.238;2023-01-01T17:07:27;13.60;93.00
38788;DHT22;24536;45.488;12.238;2023-01-01T17:09:52;13.60;93.00
38788;DHT22;24536;45.488;12.238;2023-01-01T17:12:18;13.60;92.90
38788;DHT22;24536;45.488;12.238;2023-01-01T17:14:44;13.60;92.80
38788;DHT22;24536;45.488;12.238;2023-01-01T17:17:11;13.50;92.80
38788;DHT22;24536;45.488;12.238;2023-01-01T17:19:37;13.60;92.80
38788;DHT22;24536;45.488;12.238;2023-01-01T17:22:02;13.50;92.70
38788;DHT22;24536;45.488;12.238;2023-01-01T17:24:30;13.50;92.80
38788;DHT22;24536;45.488;12.238;2023-01-01T17:26:55;13.50;92.80
38788;DHT22;24536;45.488;12.238;2023-01-01T17:29:21;13.50;92.80
38788;DHT22;24536;45.488;12.238;2023-01-01T17:31:48;13.50;92.80
38788;DHT22;24536;45.488;12.238;2023-01-01T17:34:13;13.50;92.80
38788;DHT22;24536;45.488;12.238;2023-01-01T17:36:40;13.50;92.80
38788;DHT22;24536;45.488;12.238;2023-01-01T17:39:08;13.50;92.90
38788;DHT22;24536;45.488;12.238;2023-01-01T17:41:34;13.50;92.90
38788;DHT22;24536;45.488;12.238;2023-01-01T17:43:59;13.50;92.90
38788;DHT22;24536;45.488;12.238;2023-01-01T17:46:27;13.50;92.90
38788;DHT22;24536;45.488;12.238;2023-01-01T17:48:54;13.50;92.90
38788;DHT22;24536;45.488;12.238;2023-01-01T17:51:20;13.50;92.80
38788;DHT22;24536;45.488;12.238;2023-01-01T17:53:46;13.50;92.80
38788;DHT22;24536;45.488;12.238;2023-01-01T17:56:14;13.50;92.80
38788;DHT22;24536;45.488;12.238;2023-01-01T17:58:41;13.50;92.80
38788;DHT22;24536;45.488;12.238;2023-01-01T18:01:40;13.50;92.80
38788;DHT22;24536;45.488;12.238;2023-01-01T18:04:02;13.50;92.80
38788;DHT22;24536;45.488;12.238;2023-01-01T18:06:30;13.50;92.80
38788;DHT22;24536;45.488;12.238;2023-01-01T18:09:01;13.50;92.90
38788;DHT22;24536;45.488;12.238;2023-01-01T18:11:28;13.50;92.90
38788;DHT22;24536;45.488;12.238;2023-01-01T18:13:58;13.50;92.90
38788;DHT22;24536;45.488;12.238;2023-01-01T18:16:25;13.50;92.90
38788;DHT22;24536;45.488;12.238;2023-01-01T18:18:51;13.40;92.90
38788;DHT22;24536;45.488;12.238;2023-01-01T18:21:20;13.40;93.00
38788;DHT22;24536;45.488;12.238;2023-01-01T18:23:49;13.40;93.00
38788;DHT22;24536;45.488;12.238;2023-01-01T18:26:16;13.40;93.00
38788;DHT22;24536;45.488;12.238;2023-01-01T18:28:42;13.40;93.00
38788;DHT22;24536;45.488;12.238;2023-01-01T18:31:15;13.40;93.30
38788;DHT22;24536;45.488;12.238;2023-01-01T18:33:41;13.30;93.00
38788;DHT22;24536;45.488;12.238;2023-01-01T18:36:12;13.30;93.10